sensor_id;sensor_type;location;lat;lon;timestamp;temperature;humidity
34985;DHT22;21190;58.750;17.004;2022-11-23T00:00:57;2.80;99.90
34985;DHT22;21190;58.750;17.004;2022-11-23T00:03:24;2.80;99.90
34985;DHT22;21190;58.750;17.004;2022-11-23T00:05:51;2.80;99.90
34985;DHT22;21190;58.750;17.004;2022-11-23T00:08:18;2.90;99.90
34985;DHT22;21190;58.750;17.004;2022-11-23T00:10:45;2.90;99.90
34985;DHT22;21190;58.750;17.004;2022-11-23T00:13:11;2.90;99.90
34985;DHT22;21190;58.750;17.004;2022-11-23T00:15:39;2.80;99.90
34985;DHT22;21190;58.750;17.004;2022-11-23T00:18:06;2.80;99.90
34985;DHT22;21190;58.750;17.004;2022-11-23T00:20:33;2.70;99.90
34985;DHT22;21190;58.750;17.004;2022-11-23T00:23:00;2.80;99.90
34985;DHT22;21190;58.750;17.004;2022-11-23T00:25:27;2.80;99.90
34985;DHT22;21190;58.750;17.004;2022-11-23T00:27:55;2.80;99.90
34985;DHT22;21190;58.750;17.004;2022-11-23T00:30:21;2.70;99.90
34985;DHT22;21190;58.750;17.004;2022-11-23T00:32:48;2.70;99.90
34985;DHT22;21190;58.750;17.004;2022-11-23T00:35:15;2.70;99.90
34985;DHT22;21190;58.750;17.004;2022-11-23T00:37:42;2.70;99.90
34985;DHT22;21190;58.750;17.004;2022-11-23T00:40:09;2.70;99.90
34985;DHT22;21190;58.750;17.004;2022-11-23T00:42:36;2.80;99.90
34985;DHT22;21190;58.750;17.004;2022-11-23T00:45:03;2.80;99.90
34985;DHT22;21190;58.750;17.004;2022-11-23T00:47:30;2.80;99.90
34985;DHT22;21190;58.750;17.004;2022-11-23T00:49:57;2.80;99.90
34985;DHT22;21190;58.750;17.004;2022-11-23T00:52:24;2.90;99.90
34985;DHT22;21190;58.750;17.004;2022-11-23T00:54:51;2.90;99.90
34985;DHT22;21190;58.750;17.004;2022-11-23T00:57:18;2.90;99.90
34985;DHT22;21190;58.750;17.004;2022-11-23T00:59:45;3.00;99.90
34985;DHT22;21190;58.750;17.004;2022-11-23T01:02:11;3.00;99.90
34985;DHT22;21190;58.750;17.004;2022-11-23T01:04:38;3.00;99.90
34985;DHT22;21190;58.750;17.004;2022-11-23T01:07:05;3.00;99.90
34985;DHT22;21190;58.750;17.004;2022-11-23T01:09:32;3.00;99.90
34985;DHT22;21190;58.750;17.004;2022-11-23T01:11:59;3.00;99.90
34985;DHT22;21190;58.750;17.004;2022-11-23T01:14:26;3.00;99.90
34985;DHT22;21190;58.750;17.004;2022-11-23T01:16:52;3.00;99.90
34985;DHT22;21190;58.750;17.004;2022-11-23T01:19:19;3.00;99.90
34985;DHT22;21190;58.750;17.004;2022-11-23T01:21:46;3.00;99.90
34985;DHT22;21190;58.750;17.004;2022-11-23T01:24:15;3.10;99.90
34985;DHT22;21190;58.750;17.004;2022-11-23T01:26:42;3.10;99.90
34985;DHT22;21190;58.750;17.004;2022-11-23T01:29:12;3.10;99.90
34985;DHT22;21190;58.750;17.004;2022-11-23T01:31:39;3.00;99.90
34985;DHT22;21190;58.750;17.004;2022-11-23T01:34:12;3.00;99.90
34985;DHT22;21190;58.750;17.004;2022-11-23T01:36:40;3.00;99.90
34985;DHT22;21190;58.750;17.004;2022-11-23T01:39:06;3.00;99.90
34985;DHT22;21190;58.750;17.004;2022-11-23T01:41:34;3.00;99.90
34985;DHT22;21190;58.750;17.004;2022-11-23T01:47:06;2.80;99.90
34985;DHT22;21190;58.750;17.004;2022-11-23T01:49:51;2.80;99.90
34985;DHT22;21190;58.750;17.004;2022-11-23T01:52:21;2.90;99.90
34985;DHT22;21190;58.750;17.004;2022-11-23T01:54:49;2.90;99.90
34985;DHT22;21190;58.750;17.004;2022-11-23T01:57:25;2.90;99.90
34985;DHT22;21190;58.750;17.004;2022-11-23T01:59:54;2.90;99.90
34985;DHT22;21190;58.750;17.004;2022-11-23T02:02:21;2.90;99.90
34985;DHT22;21190;58.750;17.004;2022-11-23T02:04:48;2.90;99.90
34985;DHT22;21190;58.750;17.004;2022-11-23T02:07:17;2.90;99.90
34985;DHT22;21190;58.750;17.004;2022-11-23T02:09:45;2.90;99.90
34985;DHT22;21190;58.750;17.004;2022-11-23T02:12:13;2.90;99.90
34985;DHT22;21190;58.750;17.004;2022-11-23T02:14:40;2.90;99.90
34985;DHT22;21190;58.750;17.004;2022-11-23T02:17:07;3.00;99.90
34985;DHT22;21190;58.750;17.004;2022-11-23T02:19:50;2.90;99.90
34985;DHT22;21190;58.750;17.004;2022-11-23T02:24:53;2.90;99.90
34985;DHT22;21190;58.750;17.004;2022-11-23T02:27:20;2.90;99.90
34985;DHT22;21190;58.750;17.004;2022-11-23T02:29:48;2.80;99.90
34985;DHT22;21190;58.750;17.004;2022-11-23T02:32:19;2.70;99.90
34985;DHT22;21190;58.750;17.004;2022-11-23T02:34:49;2.70;99.90
34985;DHT22;21190;58.750;17.004;2022-11-23T02:37:16;2.70;99.90
34985;DHT22;21190;58.750;17.004;2022-11-23T02:39:47;2.60;99.90
34985;DHT22;21190;58.750;17.004;2022-11-23T02:42:14;2.70;99.90
34985;DHT22;21190;58.750;17.004;2022-11-23T02:47:29;2.60;99.90
34985;DHT22;21190;58.750;17.004;2022-11-23T02:49:56;2.50;99.90
34985;DHT22;21190;58.750;17.004;2022-11-23T02:52:23;2.50;99.90
34985;DHT22;21190;58.750;17.004;2022-11-23T02:54:50;2.50;99.90
34985;DHT22;21190;58.750;17.004;2022-11-23T02:57:16;2.50;99.90
34985;DHT22;21190;58.750;17.004;2022-11-23T02:59:43;2.50;99.90
34985;DHT22;21190;58.750;17.004;2022-11-23T03:02:10;2.50;99.90
34985;DHT22;21190;58.750;17.004;2022-11-23T03:04:37;2.50;99.90
34985;DHT22;21190;58.750;17.004;2022-11-23T03:07:04;2.50;99.90
34985;DHT22;21190;58.750;17.004;2022-11-23T03:09:31;2.40;99.90
34985;DHT22;21190;58.750;17.004;2022-11-23T03:11:58;2.40;99.90
34985;DHT22;21190;58.750;17.004;2022-11-23T03:14:25;2.40;99.90
34985;DHT22;21190;58.750;17.004;2022-11-23T03:16:52;2.30;99.90
34985;DHT22;21190;58.750;17.004;2022-11-23T03:19:18;2.30;99.90
34985;DHT22;21190;58.750;17.004;2022-11-23T03:21:45;2.30;99.90
34985;DHT22;21190;58.750;17.004;2022-11-23T03:24:12;2.30;99.90
34985;DHT22;21190;58.750;17.004;2022-11-23T03:26:39;2.30;99.90
34985;DHT22;21190;58.750;17.004;2022-11-23T03:29:06;2.30;99.90
34985;DHT22;21190;58.750;17.004;2022-11-23T03:31:32;2.30;99.90
34985;DHT22;21190;58.750;17.004;2022-11-23T03:33:59;2.30;99.90
34985;DHT22;21190;58.750;17.004;2022-11-23T03:36:26;2.30;99.90
34985;DHT22;21190;58.750;17.004;2022-11-23T03:38:53;2.30;99.90
34985;DHT22;21190;58.750;17.004;2022-11-23T03:41:20;2.20;99.90
34985;DHT22;21190;58.750;17.004;2022-11-23T03:43:46;2.20;99.90
34985;DHT22;21190;58.750;17.004;2022-11-23T03:46:13;2.20;99.90
34985;DHT22;21190;58.750;17.004;2022-11-23T03:48:40;2.30;99.90
34985;DHT22;21190;58.750;17.004;2022-11-23T03:51:07;2.20;99.90
34985;DHT22;21190;58.750;17.004;2022-11-23T03:53:34;2.20;99.90
34985;DHT22;21190;58.750;17.004;2022-11-23T03:56:01;2.20;99.90
34985;DHT22;21190;58.750;17.004;2022-11-23T03:58:27;2.20;99.90
34985;DHT22;21190;58.750;17.004;2022-11-23T04:00:54;2.10;99.90
34985;DHT22;21190;58.750;17.004;2022-11-23T04:03:21;2.10;99.90
34985;DHT22;21190;58.750;17.004;2022-11-23T04:05:48;2.10;99.90
34985;DHT22;21190;58.750;17.004;2022-11-23T04:08:15;2.00;99.90
34985;DHT22;21190;58.750;17.004;2022-11-23T04:10:42;1.90;99.90
34985;DHT22;21190;58.750;17.004;2022-11-23T04:13:08;1.90;99.90
34985;DHT22;21190;58.750;17.004;2022-11-23T04:15:35;2.00;99.90
34985;DHT22;21190;58.750;17.004;2022-11-23T04:18:02;2.00;99.90
34985;DHT22;21190;58.750;17.004;2022-11-23T04:20:29;2.00;99.90
34985;DHT22;21190;58.750;17.004;2022-11-23T04:22:56;1.90;99.90
34985;DHT22;21190;58.750;17.004;2022-11-23T04:25:23;1.90;99.90
34985;DHT22;21190;58.750;17.004;2022-11-23T04:27:50;1.90;99.90
34985;DHT22;21190;58.750;17.004;2022-11-23T04:30:16;1.90;99.90
34985;DHT22;21190;58.750;17.004;2022-11-23T04:32:44;1.90;99.90
34985;DHT22;21190;58.750;17.004;2022-11-23T04:35:10;1.90;99.90
34985;DHT22;21190;58.750;17.004;2022-11-23T04:37:37;1.90;99.90
34985;DHT22;21190;58.750;17.004;2022-11-23T04:40:04;1.90;99.90
34985;DHT22;21190;58.750;17.004;2022-11-23T04:42:31;1.90;99.90
34985;DHT22;21190;58.750;17.004;2022-11-23T04:44:58;1.90;99.90
34985;DHT22;21190;58.750;17.004;2022-11-23T04:47:25;1.90;99.90
34985;DHT22;21190;58.750;17.004;2022-11-23T04:49:52;1.90;99.90
34985;DHT22;21190;58.750;17.004;2022-11-23T04:52:19;1.80;99.90
34985;DHT22;21190;58.750;17.004;2022-11-23T04:54:45;1.90;99.90
34985;DHT22;21190;58.750;17.004;2022-11-23T04:57:12;1.90;99.90
34985;DHT22;21190;58.750;17.004;2022-11-23T04:59:39;1.90;99.90
34985;DHT22;21190;58.750;17.004;2022-11-23T05:02:06;1.90;99.90
34985;DHT22;21190;58.750;17.004;2022-11-23T05:04:33;1.90;99.90
34985;DHT22;21190;58.750;17.004;2022-11-23T05:07:00;1.90;99.90
34985;DHT22;21190;58.750;17.004;2022-11-23T05:09:27;1.90;99.90
34985;DHT22;21190;58.750;17.004;2022-11-23T05:11:53;1.90;99.90
34985;DHT22;21190;58.750;17.004;2022-11-23T05:14:20;1.90;99.90
34985;DHT22;21190;58.750;17.004;2022-11-23T05:16:47;2.00;99.90
34985;DHT22;21190;58.750;17.004;2022-11-23T05:19:14;2.00;99.90
34985;DHT22;21190;58.750;17.004;2022-11-23T05:21:41;2.00;99.90
34985;DHT22;21190;58.750;17.004;2022-11-23T05:24:07;2.10;99.90
34985;DHT22;21190;58.750;17.004;2022-11-23T05:26:34;2.10;99.90
34985;DHT22;21190;58.750;17.004;2022-11-23T05:29:01;2.10;99.90
34985;DHT22;21190;58.750;17.004;2022-11-23T05:31:28;2.20;99.90
34985;DHT22;21190;58.750;17.004;2022-11-23T05:33:55;2.20;99.90
34985;DHT22;21190;58.750;17.004;2022-11-23T05:36:22;2.20;99.90
34985;DHT22;21190;58.750;17.004;2022-11-23T05:38:48;2.10;99.90
34985;DHT22;21190;58.750;17.004;2022-11-23T05:41:15;2.10;99.90
34985;DHT22;21190;58.750;17.004;2022-11-23T05:43:42;2.10;99.90
34985;DHT22;21190;58.750;17.004;2022-11-23T05:46:09;2.10;99.90
34985;DHT22;21190;58.750;17.004;2022-11-23T05:48:35;2.00;99.90
34985;DHT22;21190;58.750;17.004;2022-11-23T05:51:02;2.00;99.90
34985;DHT22;21190;58.750;17.004;2022-11-23T05:53:31;2.00;99.90
34985;DHT22;21190;58.750;17.004;2022-11-23T05:55:58;2.00;99.90
34985;DHT22;21190;58.750;17.004;2022-11-23T05:58:26;2.00;99.90
34985;DHT22;21190;58.750;17.004;2022-11-23T06:00:57;2.00;99.90
34985;DHT22;21190;58.750;17.004;2022-11-23T06:03:24;2.00;99.90
34985;DHT22;21190;58.750;17.004;2022-11-23T06:05:51;2.00;99.90
34985;DHT22;21190;58.750;17.004;2022-11-23T06:08:18;2.00;99.90
34985;DHT22;21190;58.750;17.004;2022-11-23T06:10:45;1.90;99.90
34985;DHT22;21190;58.750;17.004;2022-11-23T06:13:11;1.90;99.90
34985;DHT22;21190;58.750;17.004;2022-11-23T06:15:38;1.80;99.90
34985;DHT22;21190;58.750;17.004;2022-11-23T06:18:05;1.90;99.90
34985;DHT22;21190;58.750;17.004;2022-11-23T06:20:32;1.80;99.90
34985;DHT22;21190;58.750;17.004;2022-11-23T06:22:59;1.80;99.90
34985;DHT22;21190;58.750;17.004;2022-11-23T06:25:26;1.80;99.90
34985;DHT22;21190;58.750;17.004;2022-11-23T06:27:56;1.80;99.90
34985;DHT22;21190;58.750;17.004;2022-11-23T06:30:24;1.80;99.90
34985;DHT22;21190;58.750;17.004;2022-11-23T06:32:51;1.80;99.90
34985;DHT22;21190;58.750;17.004;2022-11-23T06:35:18;1.90;99.90
34985;DHT22;21190;58.750;17.004;2022-11-23T06:37:47;2.00;99.90
34985;DHT22;21190;58.750;17.004;2022-11-23T06:40:14;2.00;99.90
34985;DHT22;21190;58.750;17.004;2022-11-23T06:42:41;1.90;99.90
34985;DHT22;21190;58.750;17.004;2022-11-23T06:45:08;2.00;99.90
34985;DHT22;21190;58.750;17.004;2022-11-23T06:47:35;2.00;99.90
34985;DHT22;21190;58.750;17.004;2022-11-23T06:50:02;1.90;99.90
34985;DHT22;21190;58.750;17.004;2022-11-23T06:52:29;1.90;99.90
34985;DHT22;21190;58.750;17.004;2022-11-23T06:54:55;1.90;99.90
34985;DHT22;21190;58.750;17.004;2022-11-23T06:57:22;1.90;99.90
34985;DHT22;21190;58.750;17.004;2022-11-23T06:59:49;2.00;99.90
34985;DHT22;21190;58.750;17.004;2022-11-23T07:02:16;2.00;99.90
34985;DHT22;21190;58.750;17.004;2022-11-23T07:04:43;2.00;99.90
34985;DHT22;21190;58.750;17.004;2022-11-23T07:07:09;2.00;99.90
34985;DHT22;21190;58.750;17.004;2022-11-23T07:09:37;1.90;99.90
34985;DHT22;21190;58.750;17.004;2022-11-23T07:12:03;1.90;99.90
34985;DHT22;21190;58.750;17.004;2022-11-23T07:14:30;1.90;99.90
34985;DHT22;21190;58.750;17.004;2022-11-23T07:16:57;2.00;99.90
34985;DHT22;21190;58.750;17.004;2022-11-23T07:19:24;1.90;99.90
34985;DHT22;21190;58.750;17.004;2022-11-23T07:21:51;1.90;99.90
34985;DHT22;21190;58.750;17.004;2022-11-23T07:24:18;2.00;99.90
34985;DHT22;21190;58.750;17.004;2022-11-23T07:26:44;2.00;99.90
34985;DHT22;21190;58.750;17.004;2022-11-23T07:29:11;2.00;99.90
34985;DHT22;21190;58.750;17.004;2022-11-23T07:31:38;2.00;99.90
34985;DHT22;21190;58.750;17.004;2022-11-23T07:34:05;2.00;99.90
34985;DHT22;21190;58.750;17.004;2022-11-23T07:36:32;1.90;99.90
34985;DHT22;21190;58.750;17.004;2022-11-23T07:38:58;2.00;99.90
34985;DHT22;21190;58.750;17.004;2022-11-23T07:41:25;2.00;99.90
34985;DHT22;21190;58.750;17.004;2022-11-23T07:43:53;2.10;99.90
34985;DHT22;21190;58.750;17.004;2022-11-23T07:46:20;2.10;99.90
34985;DHT22;21190;58.750;17.004;2022-11-23T07:48:47;2.10;99.90
34985;DHT22;21190;58.750;17.004;2022-11-23T07:51:13;2.10;99.90
34985;DHT22;21190;58.750;17.004;2022-11-23T07:53:41;2.10;99.90
34985;DHT22;21190;58.750;17.004;2022-11-23T07:56:10;2.10;99.90
34985;DHT22;21190;58.750;17.004;2022-11-23T07:58:37;2.10;99.90
34985;DHT22;21190;58.750;17.004;2022-11-23T08:01:04;2.10;99.90
34985;DHT22;21190;58.750;17.004;2022-11-23T08:03:31;2.10;99.90
34985;DHT22;21190;58.750;17.004;2022-11-23T08:05:58;2.10;99.90
34985;DHT22;21190;58.750;17.004;2022-11-23T08:08:24;2.10;99.90
34985;DHT22;21190;58.750;17.004;2022-11-23T08:10:51;2.10;99.90
34985;DHT22;21190;58.750;17.004;2022-11-23T08:13:20;2.10;99.90
34985;DHT22;21190;58.750;17.004;2022-11-23T08:15:47;2.20;99.90
34985;DHT22;21190;58.750;17.004;2022-11-23T08:18:20;2.20;99.90
34985;DHT22;21190;58.750;17.004;2022-11-23T08:20:47;2.20;99.90
34985;DHT22;21190;58.750;17.004;2022-11-23T08:23:14;2.20;99.90
34985;DHT22;21190;58.750;17.004;2022-11-23T08:25:41;2.20;99.90
34985;DHT22;21190;58.750;17.004;2022-11-23T08:28:08;2.20;99.90
34985;DHT22;21190;58.750;17.004;2022-11-23T08:30:35;2.10;99.90
34985;DHT22;21190;58.750;17.004;2022-11-23T08:33:03;2.20;99.90
34985;DHT22;21190;58.750;17.004;2022-11-23T08:35:32;2.20;99.90
34985;DHT22;21190;58.750;17.004;2022-11-23T08:37:58;2.20;99.90
34985;DHT22;21190;58.750;17.004;2022-11-23T08:40:25;2.20;99.90
34985;DHT22;21190;58.750;17.004;2022-11-23T08:42:52;2.20;99.90
34985;DHT22;21190;58.750;17.004;2022-11-23T08:45:20;2.30;99.90
34985;DHT22;21190;58.750;17.004;2022-11-23T08:47:46;2.20;99.90
34985;DHT22;21190;58.750;17.004;2022-11-23T08:50:14;2.20;99.90
34985;DHT22;21190;58.750;17.004;2022-11-23T08:52:41;2.20;99.90
34985;DHT22;21190;58.750;17.004;2022-11-23T08:55:08;2.20;99.90
34985;DHT22;21190;58.750;17.004;2022-11-23T08:57:35;2.20;99.90
34985;DHT22;21190;58.750;17.004;2022-11-23T09:00:05;2.30;99.90
34985;DHT22;21190;58.750;17.004;2022-11-23T09:02:32;2.30;99.90
34985;DHT22;21190;58.750;17.004;2022-11-23T09:04:59;2.30;99.90
34985;DHT22;21190;58.750;17.004;2022-11-23T09:07:26;2.30;99.90
34985;DHT22;21190;58.750;17.004;2022-11-23T09:09:53;2.30;99.90
34985;DHT22;21190;58.750;17.004;2022-11-23T09:12:19;2.30;99.90
34985;DHT22;21190;58.750;17.004;2022-11-23T09:14:46;2.30;99.90
34985;DHT22;21190;58.750;17.004;2022-11-23T09:17:13;2.30;99.90
34985;DHT22;21190;58.750;17.004;2022-11-23T09:19:40;2.30;99.90
34985;DHT22;21190;58.750;17.004;2022-11-23T09:22:07;2.30;99.90
34985;DHT22;21190;58.750;17.004;2022-11-23T09:24:33;2.30;99.90
34985;DHT22;21190;58.750;17.004;2022-11-23T09:27:01;2.30;99.90
34985;DHT22;21190;58.750;17.004;2022-11-23T09:29:27;2.30;99.90
34985;DHT22;21190;58.750;17.004;2022-11-23T09:31:54;2.30;99.90
34985;DHT22;21190;58.750;17.004;2022-11-23T09:34:21;2.30;99.90
34985;DHT22;21190;58.750;17.004;2022-11-23T09:36:48;2.30;99.90
34985;DHT22;21190;58.750;17.004;2022-11-23T09:39:15;2.40;99.90
34985;DHT22;21190;58.750;17.004;2022-11-23T09:47:14;2.40;99.90
34985;DHT22;21190;58.750;17.004;2022-11-23T09:52:21;2.50;99.90
34985;DHT22;21190;58.750;17.004;2022-11-23T09:54:48;2.50;99.90
34985;DHT22;21190;58.750;17.004;2022-11-23T09:57:18;2.50;99.90
34985;DHT22;21190;58.750;17.004;2022-11-23T09:59:55;2.40;99.90
34985;DHT22;21190;58.750;17.004;2022-11-23T10:02:24;2.40;99.90
34985;DHT22;21190;58.750;17.004;2022-11-23T10:04:51;2.40;99.90
34985;DHT22;21190;58.750;17.004;2022-11-23T10:07:26;2.40;99.90
34985;DHT22;21190;58.750;17.004;2022-11-23T10:10:12;2.40;99.90
34985;DHT22;21190;58.750;17.004;2022-11-23T10:15:23;2.40;99.90
34985;DHT22;21190;58.750;17.004;2022-11-23T10:25:22;2.40;99.90
34985;DHT22;21190;58.750;17.004;2022-11-23T10:27:50;2.40;99.90
34985;DHT22;21190;58.750;17.004;2022-11-23T10:30:17;2.40;99.90
34985;DHT22;21190;58.750;17.004;2022-11-23T10:35:12;2.50;99.90
34985;DHT22;21190;58.750;17.004;2022-11-23T10:37:39;2.40;99.90
34985;DHT22;21190;58.750;17.004;2022-11-23T10:40:25;2.40;99.90
34985;DHT22;21190;58.750;17.004;2022-11-23T10:42:58;2.50;99.90
34985;DHT22;21190;58.750;17.004;2022-11-23T10:45:27;2.50;99.90
34985;DHT22;21190;58.750;17.004;2022-11-23T10:47:55;2.50;99.90
34985;DHT22;21190;58.750;17.004;2022-11-23T10:50:31;2.50;99.90
34985;DHT22;21190;58.750;17.004;2022-11-23T10:55:45;2.60;99.90
34985;DHT22;21190;58.750;17.004;2022-11-23T11:01:04;2.60;99.90
34985;DHT22;21190;58.750;17.004;2022-11-23T11:03:32;2.60;99.90
34985;DHT22;21190;58.750;17.004;2022-11-23T11:05:59;2.60;99.90
34985;DHT22;21190;58.750;17.004;2022-11-23T11:08:44;2.60;99.90
34985;DHT22;21190;58.750;17.004;2022-11-23T11:16:30;2.60;99.90
34985;DHT22;21190;58.750;17.004;2022-11-23T11:18:57;2.60;99.90
34985;DHT22;21190;58.750;17.004;2022-11-23T11:21:34;2.60;99.90
34985;DHT22;21190;58.750;17.004;2022-11-23T11:24:12;2.60;99.90
34985;DHT22;21190;58.750;17.004;2022-11-23T11:26:51;2.60;99.90
34985;DHT22;21190;58.750;17.004;2022-11-23T11:29:28;2.70;99.90
34985;DHT22;21190;58.750;17.004;2022-11-23T11:34:37;2.70;99.90
34985;DHT22;21190;58.750;17.004;2022-11-23T11:37:12;2.70;99.90
34985;DHT22;21190;58.750;17.004;2022-11-23T11:42:17;2.80;99.90
34985;DHT22;21190;58.750;17.004;2022-11-23T11:44:45;2.80;99.90
34985;DHT22;21190;58.750;17.004;2022-11-23T11:50:00;2.80;99.90
34985;DHT22;21190;58.750;17.004;2022-11-23T11:52:28;2.80;99.90
34985;DHT22;21190;58.750;17.004;2022-11-23T11:55:04;2.80;99.90
34985;DHT22;21190;58.750;17.004;2022-11-23T11:57:35;2.80;99.90
34985;DHT22;21190;58.750;17.004;2022-11-23T12:00:05;2.90;99.90
34985;DHT22;21190;58.750;17.004;2022-11-23T12:02:41;2.90;99.90
34985;DHT22;21190;58.750;17.004;2022-11-23T12:05:13;3.00;99.90
34985;DHT22;21190;58.750;17.004;2022-11-23T12:10:31;3.00;99.90
34985;DHT22;21190;58.750;17.004;2022-11-23T12:12:59;3.00;99.90
34985;DHT22;21190;58.750;17.004;2022-11-23T12:15:39;3.00;99.90
34985;DHT22;21190;58.750;17.004;2022-11-23T12:21:09;3.00;99.90
34985;DHT22;21190;58.750;17.004;2022-11-23T12:23:45;3.00;99.90
34985;DHT22;21190;58.750;17.004;2022-11-23T12:26:23;3.10;99.90
34985;DHT22;21190;58.750;17.004;2022-11-23T12:29:09;3.20;99.90
34985;DHT22;21190;58.750;17.004;2022-11-23T12:31:47;3.10;99.90
34985;DHT22;21190;58.750;17.004;2022-11-23T12:34:20;3.00;99.90
34985;DHT22;21190;58.750;17.004;2022-11-23T12:42:22;3.00;99.90
34985;DHT22;21190;58.750;17.004;2022-11-23T12:49:50;2.90;99.90
34985;DHT22;21190;58.750;17.004;2022-11-23T12:57:25;2.70;99.90
34985;DHT22;21190;58.750;17.004;2022-11-23T13:00:01;2.80;99.90
34985;DHT22;21190;58.750;17.004;2022-11-23T13:10:25;2.70;99.90
34985;DHT22;21190;58.750;17.004;2022-11-23T13:23:36;2.70;99.90
34985;DHT22;21190;58.750;17.004;2022-11-23T13:26:25;2.70;99.90
34985;DHT22;21190;58.750;17.004;2022-11-23T13:28:51;2.70;99.90
34985;DHT22;21190;58.750;17.004;2022-11-23T13:33:46;2.70;99.90
34985;DHT22;21190;58.750;17.004;2022-11-23T13:42:01;2.60;99.90
34985;DHT22;21190;58.750;17.004;2022-11-23T13:44:29;2.60;99.90
34985;DHT22;21190;58.750;17.004;2022-11-23T13:49:28;2.70;99.90
34985;DHT22;21190;58.750;17.004;2022-11-23T13:54:40;2.70;99.90
34985;DHT22;21190;58.750;17.004;2022-11-23T13:57:09;2.70;99.90
34985;DHT22;21190;58.750;17.004;2022-11-23T13:59:37;2.70;99.90
34985;DHT22;21190;58.750;17.004;2022-11-23T14:04:35;2.70;99.90
34985;DHT22;21190;58.750;17.004;2022-11-23T14:09:50;2.70;99.90
34985;DHT22;21190;58.750;17.004;2022-11-23T14:12:25;2.70;99.90
34985;DHT22;21190;58.750;17.004;2022-11-23T14:14:57;2.70;99.90
34985;DHT22;21190;58.750;17.004;2022-11-23T14:24:57;2.60;99.90
34985;DHT22;21190;58.750;17.004;2022-11-23T14:33:01;2.60;99.90
34985;DHT22;21190;58.750;17.004;2022-11-23T14:35:32;2.60;99.90
34985;DHT22;21190;58.750;17.004;2022-11-23T14:43:18;2.60;99.90
34985;DHT22;21190;58.750;17.004;2022-11-23T14:45:45;2.60;99.90
34985;DHT22;21190;58.750;17.004;2022-11-23T14:48:26;2.60;99.90
34985;DHT22;21190;58.750;17.004;2022-11-23T14:50:55;2.60;99.90
34985;DHT22;21190;58.750;17.004;2022-11-23T14:53:24;2.50;99.90
34985;DHT22;21190;58.750;17.004;2022-11-23T14:55:53;2.50;99.90
34985;DHT22;21190;58.750;17.004;2022-11-23T14:58:20;2.50;99.90
34985;DHT22;21190;58.750;17.004;2022-11-23T15:00:51;2.50;99.90
34985;DHT22;21190;58.750;17.004;2022-11-23T15:03:19;2.50;99.90
34985;DHT22;21190;58.750;17.004;2022-11-23T15:06:11;2.50;99.90
34985;DHT22;21190;58.750;17.004;2022-11-23T15:08:44;2.50;99.90
34985;DHT22;21190;58.750;17.004;2022-11-23T15:11:16;2.50;99.90
34985;DHT22;21190;58.750;17.004;2022-11-23T15:13:48;2.50;99.90
34985;DHT22;21190;58.750;17.004;2022-11-23T15:16:16;2.50;99.90
34985;DHT22;21190;58.750;17.004;2022-11-23T15:18:43;2.50;99.90
34985;DHT22;21190;58.750;17.004;2022-11-23T15:23:41;2.50;99.90
34985;DHT22;21190;58.750;17.004;2022-11-23T15:26:12;2.50;99.90
34985;DHT22;21190;58.750;17.004;2022-11-23T15:29:00;2.40;99.90
34985;DHT22;21190;58.750;17.004;2022-11-23T15:31:28;2.50;99.90
34985;DHT22;21190;58.750;17.004;2022-11-23T15:34:00;2.50;99.90
34985;DHT22;21190;58.750;17.004;2022-11-23T15:36:30;2.50;99.90
34985;DHT22;21190;58.750;17.004;2022-11-23T15:38:57;2.40;99.90
34985;DHT22;21190;58.750;17.004;2022-11-23T15:41:26;2.40;99.90
34985;DHT22;21190;58.750;17.004;2022-11-23T15:43:55;2.40;99.90
34985;DHT22;21190;58.750;17.004;2022-11-23T15:46:23;2.40;99.90
34985;DHT22;21190;58.750;17.004;2022-11-23T15:48:51;2.40;99.90
34985;DHT22;21190;58.750;17.004;2022-11-23T15:51:27;2.40;99.90
34985;DHT22;21190;58.750;17.004;2022-11-23T15:53:57;2.40;99.90
34985;DHT22;21190;58.750;17.004;2022-11-23T15:56:25;2.40;99.90
34985;DHT22;21190;58.750;17.004;2022-11-23T15:58:53;2.40;99.90
34985;DHT22;21190;58.750;17.004;2022-11-23T16:01:20;2.40;99.90
34985;DHT22;21190;58.750;17.004;2022-11-23T16:03:48;2.40;99.90
34985;DHT22;21190;58.750;17.004;2022-11-23T16:06:22;2.40;99.90
34985;DHT22;21190;58.750;17.004;2022-11-23T16:08:50;2.40;99.90
34985;DHT22;21190;58.750;17.004;2022-11-23T16:11:21;2.40;99.90
34985;DHT22;21190;58.750;17.004;2022-11-23T16:13:48;2.40;99.90
34985;DHT22;21190;58.750;17.004;2022-11-23T16:16:18;2.40;99.90
34985;DHT22;21190;58.750;17.004;2022-11-23T16:18:47;2.40;99.90
34985;DHT22;21190;58.750;17.004;2022-11-23T16:21:18;2.40;99.90
34985;DHT22;21190;58.750;17.004;2022-11-23T16:23:49;2.40;99.90
34985;DHT22;21190;58.750;17.004;2022-11-23T16:26:17;2.30;99.90
34985;DHT22;21190;58.750;17.004;2022-11-23T16:28:50;2.30;99.90
34985;DHT22;21190;58.750;17.004;2022-11-23T16:31:26;2.30;99.90
34985;DHT22;21190;58.750;17.004;2022-11-23T16:33:54;2.30;99.90
34985;DHT22;21190;58.750;17.004;2022-11-23T16:36:21;2.30;99.90
34985;DHT22;21190;58.750;17.004;2022-11-23T16:38:48;2.40;99.90
34985;DHT22;21190;58.750;17.004;2022-11-23T16:41:15;2.40;99.90
34985;DHT22;21190;58.750;17.004;2022-11-23T16:43:42;2.40;99.90
34985;DHT22;21190;58.750;17.004;2022-11-23T16:46:09;2.40;99.90
34985;DHT22;21190;58.750;17.004;2022-11-23T16:48:37;2.40;99.90
34985;DHT22;21190;58.750;17.004;2022-11-23T16:51:05;2.40;99.90
34985;DHT22;21190;58.750;17.004;2022-11-23T16:53:32;2.40;99.90
34985;DHT22;21190;58.750;17.004;2022-11-23T16:56:20;2.40;99.90
34985;DHT22;21190;58.750;17.004;2022-11-23T16:58:47;2.40;99.90
34985;DHT22;21190;58.750;17.004;2022-11-23T17:01:21;2.40;99.90
34985;DHT22;21190;58.750;17.004;2022-11-23T17:03:49;2.40;99.90
34985;DHT22;21190;58.750;17.004;2022-11-23T17:06:16;2.30;99.90
34985;DHT22;21190;58.750;17.004;2022-11-23T17:08:43;2.30;99.90
34985;DHT22;21190;58.750;17.004;2022-11-23T17:11:20;2.40;99.90
34985;DHT22;21190;58.750;17.004;2022-11-23T17:13:48;2.40;99.90
34985;DHT22;21190;58.750;17.004;2022-11-23T17:16:17;2.40;99.90
34985;DHT22;21190;58.750;17.004;2022-11-23T17:18:44;2.30;99.90
34985;DHT22;21190;58.750;17.004;2022-11-23T17:21:11;2.30;99.90
34985;DHT22;21190;58.750;17.004;2022-11-23T17:23:38;2.30;99.90
34985;DHT22;21190;58.750;17.004;2022-11-23T17:26:06;2.30;99.90
34985;DHT22;21190;58.750;17.004;2022-11-23T17:28:43;2.30;99.90
34985;DHT22;21190;58.750;17.004;2022-11-23T17:31:10;2.30;99.90
34985;DHT22;21190;58.750;17.004;2022-11-23T17:33:37;2.30;99.90
34985;DHT22;21190;58.750;17.004;2022-11-23T17:36:04;2.40;99.90
34985;DHT22;21190;58.750;17.004;2022-11-23T17:38:31;2.30;99.90
34985;DHT22;21190;58.750;17.004;2022-11-23T17:40:59;2.30;99.90
34985;DHT22;21190;58.750;17.004;2022-11-23T17:43:26;2.30;99.90
34985;DHT22;21190;58.750;17.004;2022-11-23T17:45:52;2.40;99.90